Time;durP1;ratioP1;P1;durP2;ratioP2;P2;SDS_P1;SDS_P2;PMS_P1;PMS_P2;Temp;Humidity;BMP_temperature;BMP_pressure;BME280_temperature;BME280_humidity;BME280_pressure;Samples;Min_cycle;Max_cycle;Signal;HPM_P1;HPM_P2
2022/11/26 00:00:30;;;;;;;10.17;6.13;;;;;;;7.57;96.06;99658.41;4989197;28;102977;-60
2022/11/26 00:02:58;;;;;;;12.07;6.27;;;;;;;7.44;98.03;99661.63;4988496;28;104612;-60
2022/11/26 00:05:31;;;;;;;9.37;5.43;;;;;;;7.68;97.02;99657.06;4989550;28;103180;-61
2022/11/26 00:08:00;;;;;;;7.20;4.37;;;;;;;7.87;97.39;99650.03;4989645;28;102654;-60
2022/11/26 00:10:31;;;;;;;5.80;4.40;;;;;;;7.95;95.90;99655.78;4971972;28;103754;-60
2022/11/26 00:13:01;;;;;;;8.17;4.70;;;;;;;7.94;95.47;99665.44;4987397;28;103495;-62
2022/11/26 00:15:31;;;;;;;11.37;5.93;;;;;;;7.90;94.87;99656.00;4987067;28;103221;-63
2022/11/26 00:17:59;;;;;;;12.27;5.30;;;;;;;7.79;95.23;99660.91;4985509;28;103430;-63
2022/11/26 00:20:30;;;;;;;5.47;4.20;;;;;;;7.91;95.24;99655.09;4988922;28;103897;-62
2022/11/26 00:23:02;;;;;;;9.43;5.47;;;;;;;7.65;94.67;99672.97;4989066;28;103506;-62
2022/11/26 00:25:42;;;;;;;6.13;5.00;;;;;;;7.81;94.68;99673.97;4989339;28;103217;-62
2022/11/26 00:28:26;;;;;;;12.63;5.47;;;;;;;7.58;95.85;99673.25;4986859;28;102582;-62
2022/11/26 00:30:56;;;;;;;13.07;5.30;;;;;;;7.50;95.88;99670.09;4992147;28;102772;-60
2022/11/26 00:33:27;;;;;;;12.30;5.63;;;;;;;7.54;96.22;99686.63;4987405;28;103787;-60
2022/11/26 00:35:58;;;;;;;7.43;4.37;;;;;;;7.64;96.04;99681.78;4993495;28;103222;-60
2022/11/26 00:38:26;;;;;;;16.97;5.97;;;;;;;7.46;96.18;99681.69;4988144;28;102584;-60
2022/11/26 00:40:54;;;;;;;12.13;6.07;;;;;;;7.55;96.21;99691.78;4971106;28;102808;-60
2022/11/26 00:43:23;;;;;;;12.00;6.40;;;;;;;7.66;95.94;99691.34;4989823;28;104203;-60
2022/11/26 00:45:53;;;;;;;9.97;5.33;;;;;;;7.55;96.02;99694.41;4987756;28;103309;-60
2022/11/26 00:48:21;;;;;;;10.60;5.27;;;;;;;7.62;96.54;99696.78;4987096;28;102767;-60
2022/11/26 00:50:51;;;;;;;9.80;5.27;;;;;;;7.67;96.19;99692.16;4992771;28;102748;-62
2022/11/26 00:53:22;;;;;;;7.97;4.20;;;;;;;7.82;96.18;99696.75;4987444;28;102635;-62
2022/11/26 00:55:50;;;;;;;8.50;5.10;;;;;;;7.78;95.50;99703.06;4988754;28;103184;-63
2022/11/26 00:58:25;;;;;;;10.90;5.80;;;;;;;7.68;95.65;99701.78;4966841;28;102965;-63
2022/11/26 01:00:55;;;;;;;7.43;4.53;;;;;;;7.82;95.72;99702.88;4989511;28;103917;-62
2022/11/26 01:07:47;;;;;;;7.67;4.50;;;;;;;7.94;95.42;99719.88;4982999;28;103050;-60
2022/11/26 01:10:19;;;;;;;11.20;4.93;;;;;;;7.78;95.21;99721.47;4986828;28;103237;-60
2022/11/26 01:12:51;;;;;;;11.73;6.00;;;;;;;7.78;96.06;99724.97;4988918;28;102702;-60
2022/11/26 01:19:39;;;;;;;5.00;3.37;;;;;;;7.98;95.78;99745.09;4984683;28;102879;-60
2022/11/26 01:22:18;;;;;;;8.57;4.90;;;;;;;7.90;95.28;99741.97;4966663;28;103022;-60
2022/11/26 01:24:47;;;;;;;10.10;4.80;;;;;;;7.80;95.63;99740.69;4988566;28;103997;-60
2022/11/26 01:27:15;;;;;;;5.67;3.83;;;;;;;7.94;95.94;99744.38;4985137;28;103815;-60
2022/11/26 01:29:45;;;;;;;6.50;3.70;;;;;;;7.94;95.84;99748.81;4986739;28;103208;-61
2022/11/26 01:32:13;;;;;;;9.90;3.67;;;;;;;7.96;95.62;99749.59;4987010;28;102798;-61
2022/11/26 01:34:44;;;;;;;10.03;3.70;;;;;;;8.06;95.80;99758.78;4986416;28;103959;-61
2022/11/26 01:37:13;;;;;;;7.70;5.00;;;;;;;8.02;95.14;99752.81;4972988;28;104996;-60
2022/11/26 01:39:41;;;;;;;9.50;4.90;;;;;;;7.84;95.79;99758.03;4986574;28;103807;-60
2022/11/26 01:42:24;;;;;;;9.33;5.40;;;;;;;7.68;96.88;99765.75;4984243;28;103227;-60
2022/11/26 01:44:52;;;;;;;7.30;4.60;;;;;;;7.84;95.36;99781.72;4986801;28;104876;-60
2022/11/26 01:47:23;;;;;;;6.63;3.90;;;;;;;7.95;96.04;99777.69;4983447;28;103336;-60
2022/11/26 01:50:28;;;;;;;6.33;4.10;;;;;;;8.08;95.95;99785.91;4991045;28;103227;-60
2022/11/26 01:53:02;;;;;;;6.60;4.70;;;;;;;8.09;95.43;99779.69;4986152;28;102762;-63
2022/11/26 01:55:36;;;;;;;7.23;4.33;;;;;;;8.18;95.54;99779.28;4987199;28;103870;-63
2022/11/26 01:58:11;;;;;;;4.97;3.70;;;;;;;8.24;95.34;99783.41;4987046;28;103584;-60
2022/11/26 02:00:39;;;;;;;4.73;3.30;;;;;;;8.28;95.17;99785.03;4987737;28;103318;-62
2022/11/26 02:03:08;;;;;;;9.07;4.20;;;;;;;8.29;95.11;99782.31;4983447;28;102722;-61
2022/11/26 02:05:42;;;;;;;5.97;4.07;;;;;;;8.30;94.79;99777.91;4985197;28;103599;-61
2022/11/26 02:08:12;;;;;;;6.40;3.90;;;;;;;8.28;94.80;99782.41;4970442;28;104324;-62
2022/11/26 02:10:40;;;;;;;8.63;4.87;;;;;;;8.21;94.34;99779.16;4963688;28;103965;-62
2022/11/26 02:13:08;;;;;;;12.27;4.17;;;;;;;8.22;94.79;99785.28;4985550;28;102644;-62
2022/11/26 02:15:43;;;;;;;8.27;4.60;;;;;;;8.22;95.19;99785.28;4988005;28;104134;-62
2022/11/26 02:18:12;;;;;;;10.57;4.93;;;;;;;8.24;95.10;99789.53;4982948;28;104131;-62
2022/11/26 02:20:51;;;;;;;4.50;3.20;;;;;;;8.28;94.93;99790.28;4990548;28;103262;-62
2022/11/26 02:23:56;;;;;;;9.20;4.30;;;;;;;8.15;94.63;99789.94;4985054;28;102841;-61
2022/11/26 02:26:55;;;;;;;7.20;3.97;;;;;;;8.16;95.39;99802.19;4984962;28;104098;-62
2022/11/26 02:29:29;;;;;;;9.23;4.37;;;;;;;8.14;94.74;99794.34;4983922;28;103215;-62
2022/11/26 02:32:04;;;;;;;6.43;3.70;;;;;;;8.14;94.71;99804.03;4985911;28;103163;-61
2022/11/26 02:34:39;;;;;;;5.60;3.83;;;;;;;8.17;95.02;99810.00;4984643;28;103065;-61
2022/11/26 02:37:13;;;;;;;6.20;3.50;;;;;;;8.11;94.79;99807.66;4984994;28;102768;-61
2022/11/26 02:39:40;;;;;;;6.23;3.10;;;;;;;8.14;94.64;99817.19;4981535;28;104230;-61
2022/11/26 02:42:23;;;;;;;6.53;4.30;;;;;;;7.98;94.72;99824.06;4983928;28;103307;-61
2022/11/26 02:44:52;;;;;;;9.87;4.60;;;;;;;7.49;97.04;99827.97;4969697;28;102978;-61
2022/11/26 02:47:24;;;;;;;7.67;4.57;;;;;;;7.53;97.94;99835.66;4985460;28;102808;-61
2022/11/26 02:49:53;;;;;;;9.40;4.60;;;;;;;7.48;98.44;99836.75;4984436;28;104166;-61
2022/11/26 02:52:23;;;;;;;8.90;4.07;;;;;;;7.54;99.16;99844.41;4980959;28;103236;-63
2022/11/26 02:54:52;;;;;;;8.00;4.23;;;;;;;7.68;98.46;99847.31;4986860;28;103737;-63
2022/11/26 02:57:25;;;;;;;6.10;3.50;;;;;;;7.69;98.13;99849.00;4993141;28;102846;-63
2022/11/26 02:59:53;;;;;;;5.17;4.13;;;;;;;7.79;97.04;99849.47;4973930;28;103940;-63
2022/11/26 03:02:28;;;;;;;8.13;4.30;;;;;;;7.80;97.37;99861.72;4984052;28;103956;-63
2022/11/26 03:05:00;;;;;;;7.10;4.03;;;;;;;7.87;97.05;99853.47;4986888;28;102802;-63
2022/11/26 03:07:30;;;;;;;4.63;3.67;;;;;;;7.91;96.55;99859.47;4993817;28;102636;-63
2022/11/26 03:10:01;;;;;;;7.13;3.73;;;;;;;7.79;96.38;99858.22;4986272;28;103206;-62
2022/11/26 03:12:29;;;;;;;5.87;3.80;;;;;;;7.88;96.23;99865.72;4972898;28;103116;-61
2022/11/26 03:14:57;;;;;;;9.57;3.80;;;;;;;7.93;95.89;99862.88;4988288;28;102633;-61
2022/11/26 03:17:27;;;;;;;8.60;4.63;;;;;;;7.87;95.21;99868.41;4991832;28;103953;-61
2022/11/26 03:19:54;;;;;;;7.30;3.47;;;;;;;7.91;95.66;99875.25;4969212;28;103930;-61
2022/11/26 03:22:22;;;;;;;7.00;3.57;;;;;;;7.98;96.01;99874.06;4991461;28;103289;-59
2022/11/26 03:24:50;;;;;;;4.83;2.93;;;;;;;8.05;95.90;99879.03;4989102;28;102749;-58
2022/11/26 03:27:18;;;;;;;5.77;3.40;;;;;;;8.02;95.48;99880.91;4990188;28;103738;-59
2022/11/26 03:29:46;;;;;;;6.50;3.20;;;;;;;8.09;95.94;99884.97;4988939;28;103224;-59
2022/11/26 03:32:14;;;;;;;8.30;3.60;;;;;;;7.87;95.67;99873.66;4992914;28;103337;-59
2022/11/26 03:34:43;;;;;;;5.03;3.13;;;;;;;7.93;95.84;99876.91;4990125;28;102898;-59
2022/11/26 03:37:11;;;;;;;3.73;3.10;;;;;;;7.99;95.71;99878.41;4974323;28;103871;-61
2022/11/26 03:39:39;;;;;;;5.87;3.83;;;;;;;7.84;95.02;99877.28;4988531;28;103298;-61
2022/11/26 03:46:26;;;;;;;5.87;4.60;;;;;;;7.58;95.59;99888.91;4986865;28;102787;-62
2022/11/26 03:48:56;;;;;;;6.00;3.50;;;;;;;7.69;96.60;99885.81;4990711;28;103903;-61
2022/11/26 03:51:25;;;;;;;5.33;3.73;;;;;;;7.77;96.35;99888.16;4989990;28;103073;-61
2022/11/26 03:53:53;;;;;;;5.57;3.60;;;;;;;7.75;95.91;99890.81;4987480;28;103247;-61
2022/11/26 03:56:23;;;;;;;8.47;3.40;;;;;;;7.77;95.90;99893.41;4987845;28;102568;-62
2022/11/26 03:58:51;;;;;;;4.30;2.97;;;;;;;7.77;95.39;99893.41;4988068;28;102800;-59
2022/11/26 04:01:19;;;;;;;2.97;2.60;;;;;;;7.80;95.67;99888.03;4989701;28;103279;-60
2022/11/26 04:03:47;;;;;;;4.47;2.70;;;;;;;7.83;95.19;99890.53;4988539;28;103309;-61
2022/11/26 04:06:15;;;;;;;4.67;2.43;;;;;;;7.80;94.80;99888.03;4973658;28;102939;-61
2022/11/26 04:08:44;;;;;;;5.80;3.10;;;;;;;7.69;94.04;99895.50;4988157;28;104248;-61
2022/11/26 04:11:15;;;;;;;4.80;2.73;;;;;;;7.69;94.58;99885.00;4982647;28;104164;-61
2022/11/26 04:13:42;;;;;;;7.63;3.27;;;;;;;7.45;95.13;99895.59;4992584;28;104203;-61
2022/11/26 04:16:10;;;;;;;6.63;3.23;;;;;;;7.52;95.63;99902.31;4989341;28;102720;-61
2022/11/26 04:18:38;;;;;;;6.33;2.87;;;;;;;7.51;96.21;99900.63;4971003;28;103638;-62
2022/11/26 04:21:07;;;;;;;6.87;2.83;;;;;;;7.51;96.79;99903.25;4970336;28;104145;-61
2022/11/26 04:23:36;;;;;;;3.60;2.60;;;;;;;7.66;97.18;99896.50;4986696;28;104017;-61
2022/11/26 04:26:05;;;;;;;4.23;2.40;;;;;;;7.75;96.37;99900.53;4987075;28;103027;-61
2022/11/26 04:28:33;;;;;;;3.40;2.10;;;;;;;7.77;96.10;99893.41;4986217;28;103990;-61
2022/11/26 04:31:01;;;;;;;5.53;3.60;;;;;;;7.70;94.54;99899.84;4988158;28;104247;-61
2022/11/26 04:33:31;;;;;;;3.37;2.50;;;;;;;7.71;94.84;99904.19;4987734;28;103223;-61
2022/11/26 04:35:59;;;;;;;3.00;2.50;;;;;;;7.73;94.49;99891.81;4975806;28;103069;-61
2022/11/26 04:38:27;;;;;;;7.10;3.80;;;;;;;7.57;94.13;99892.47;4987166;28;102609;-60
2022/11/26 04:40:55;;;;;;;4.37;3.00;;;;;;;7.55;94.76;99899.56;4989546;28;103671;-61
2022/11/26 04:43:24;;;;;;;6.47;3.80;;;;;;;7.56;94.49;99903.91;4969848;28;104025;-61
2022/11/26 04:45:54;;;;;;;6.37;2.40;;;;;;;7.66;94.78;99906.16;4988861;28;102569;-62
2022/11/26 04:48:22;;;;;;;4.80;2.87;;;;;;;7.63;94.27;99906.28;4990301;28;104076;-61
2022/11/26 04:50:52;;;;;;;3.80;2.50;;;;;;;7.66;94.39;99900.91;4992302;28;104002;-61
2022/11/26 04:53:20;;;;;;;5.73;2.53;;;;;;;7.71;94.48;99904.19;4987404;28;103337;-62
2022/11/26 04:55:49;;;;;;;5.30;3.13;;;;;;;7.75;94.69;99906.63;4988058;28;102572;-62
2022/11/26 04:58:20;;;;;;;4.90;3.10;;;;;;;7.74;93.76;99906.69;4972892;28;103975;-61
2022/11/26 05:00:50;;;;;;;6.77;3.33;;;;;;;7.68;93.76;99909.56;4989822;28;104060;-62
2022/11/26 05:03:18;;;;;;;6.90;3.70;;;;;;;7.64;93.93;99902.72;4988598;28;102586;-61
2022/11/26 05:05:46;;;;;;;9.13;4.43;;;;;;;7.54;93.13;99905.75;4984742;28;103267;-61
2022/11/26 05:08:14;;;;;;;7.07;4.03;;;;;;;7.46;93.48;99906.97;4967457;28;102840;-61
2022/11/26 05:10:42;;;;;;;10.40;4.33;;;;;;;7.13;94.54;99906.53;4981800;28;104254;-62
2022/11/26 05:13:10;;;;;;;7.97;4.57;;;;;;;6.59;99.18;99917.41;4986820;28;103296;-61
2022/11/26 05:15:38;;;;;;;5.90;4.17;;;;;;;6.63;99.86;99920.75;4987033;28;102698;-61
2022/11/26 05:18:07;;;;;;;6.33;3.77;;;;;;;6.92;99.21;99923.16;4982706;28;102871;-61
2022/11/26 05:20:35;;;;;;;4.80;3.63;;;;;;;6.93;97.81;99928.34;4988037;28;103253;-61
2022/11/26 05:23:03;;;;;;;6.60;3.80;;;;;;;6.86;98.40;99923.38;4988449;28;103223;-61
2022/11/26 05:25:31;;;;;;;8.17;4.17;;;;;;;6.82;98.10;99925.25;4986447;28;103091;-61
2022/11/26 05:27:58;;;;;;;7.50;3.93;;;;;;;6.89;97.64;99923.25;4959736;28;103988;-61
2022/11/26 05:30:26;;;;;;;11.43;5.03;;;;;;;6.52;98.50;99929.03;4980121;28;104316;-61
2022/11/26 05:32:54;;;;;;;6.83;4.00;;;;;;;6.44;99.67;99928.47;4970218;28;104391;-61
2022/11/26 05:35:23;;;;;;;8.47;4.90;;;;;;;6.40;99.58;99932.09;4968676;28;103077;-61
2022/11/26 05:37:51;;;;;;;8.53;5.03;;;;;;;6.49;99.35;99944.03;4972563;28;102890;-62
2022/11/26 05:40:19;;;;;;;9.07;4.37;;;;;;;6.31;100.00;99946.44;4989931;28;103952;-62
2022/11/26 05:42:47;;;;;;;8.87;5.30;;;;;;;6.18;99.37;99936.38;4988302;28;103382;-61
2022/11/26 05:45:15;;;;;;;14.20;6.90;;;;;;;6.41;99.67;99942.56;4985751;28;102705;-61
2022/11/26 05:47:43;;;;;;;8.60;5.27;;;;;;;6.29;98.63;99942.97;4983861;28;103999;-62
2022/11/26 05:50:12;;;;;;;8.97;4.87;;;;;;;5.85;100.00;99951.53;4989650;28;103225;-62
2022/11/26 05:52:41;;;;;;;9.77;4.90;;;;;;;6.08;100.00;99949.00;4990051;28;103238;-61
2022/11/26 05:55:10;;;;;;;8.47;4.57;;;;;;;6.22;98.64;99957.25;4985673;28;102649;-61
2022/11/26 05:57:38;;;;;;;7.03;4.10;;;;;;;6.37;98.79;99956.69;4986663;28;102637;-61
2022/11/26 06:00:07;;;;;;;6.07;3.40;;;;;;;6.40;97.80;99961.81;4985418;28;103319;-62
2022/11/26 06:02:38;;;;;;;4.23;3.03;;;;;;;6.44;97.45;99957.34;4992407;28;103186;-61
2022/11/26 06:05:07;;;;;;;8.07;4.93;;;;;;;6.10;96.54;99962.03;4981233;28;102675;-61
2022/11/26 06:07:35;;;;;;;10.80;5.30;;;;;;;5.77;97.90;99964.00;4980686;28;104076;-62
2022/11/26 06:10:12;;;;;;;10.47;6.23;;;;;;;5.49;100.00;99978.91;4984444;28;103281;-62
2022/11/26 06:12:40;;;;;;;11.50;5.67;;;;;;;5.59;100.00;99981.19;4967514;28;104365;-61
2022/11/26 06:15:09;;;;;;;8.60;5.43;;;;;;;5.56;100.00;99980.44;4986740;28;102633;-61
2022/11/26 06:17:37;;;;;;;7.47;4.60;;;;;;;5.76;100.00;99988.50;4987408;28;102697;-61
2022/11/26 06:20:06;;;;;;;6.30;3.73;;;;;;;5.91;99.73;99977.56;4984412;28;103273;-62
2022/11/26 06:22:37;;;;;;;7.43;4.60;;;;;;;5.93;98.35;99980.13;4985394;28;103223;-61
2022/11/26 06:25:06;;;;;;;7.53;4.50;;;;;;;5.91;98.29;99982.81;4966325;28;102708;-61
2022/11/26 06:27:35;;;;;;;6.47;4.53;;;;;;;5.85;97.35;99975.13;4986770;28;103851;-61
2022/11/26 06:30:08;;;;;;;7.77;4.97;;;;;;;5.87;97.38;99975.94;4989627;28;103406;-62
2022/11/26 06:32:38;;;;;;;8.63;5.20;;;;;;;5.71;96.83;99979.94;4986438;28;103318;-62
2022/11/26 06:35:06;;;;;;;10.00;5.40;;;;;;;5.61;96.88;99984.66;4983059;28;102851;-62
2022/11/26 06:37:34;;;;;;;7.53;5.27;;;;;;;5.53;98.03;99980.56;4964891;28;103722;-61
2022/11/26 06:40:02;;;;;;;7.90;5.53;;;;;;;5.72;97.05;99989.53;4968801;28;103960;-62
2022/11/26 06:42:30;;;;;;;9.20;6.07;;;;;;;5.82;97.64;99990.94;4984994;28;103250;-61
2022/11/26 06:44:59;;;;;;;8.83;4.60;;;;;;;5.86;97.62;99995.22;4983171;28;102734;-62
2022/11/26 06:47:28;;;;;;;8.33;4.63;;;;;;;5.80;96.47;99998.88;4969476;28;103870;-61
2022/11/26 06:49:56;;;;;;;6.40;4.20;;;;;;;5.84;96.53;100012.72;4983165;28;104128;-61
2022/11/26 06:52:23;;;;;;;6.07;4.70;;;;;;;5.73;95.95;100020.94;4986462;28;103301;-61
2022/11/26 06:54:51;;;;;;;9.33;4.60;;;;;;;5.77;96.22;100011.22;4984578;28;102666;-62
2022/11/26 06:57:19;;;;;;;8.27;4.67;;;;;;;5.82;96.36;100019.78;4973464;28;103079;-61
2022/11/26 06:59:47;;;;;;;6.90;4.23;;;;;;;5.81;96.38;100018.94;4988739;28;103307;-62
2022/11/26 07:02:16;;;;;;;5.03;4.00;;;;;;;5.87;95.95;100025.78;4984692;28;103104;-61
2022/11/26 07:04:44;;;;;;;4.67;3.43;;;;;;;5.95;95.96;100031.63;4984419;28;102717;-61
2022/11/26 07:07:12;;;;;;;7.40;4.87;;;;;;;5.96;95.18;100030.72;4986285;28;103938;-62
2022/11/26 07:09:43;;;;;;;5.93;3.83;;;;;;;5.92;94.07;100039.63;4968167;28;104046;-62
2022/11/26 07:12:11;;;;;;;8.30;5.47;;;;;;;5.88;93.44;100045.84;4983883;28;103254;-62
2022/11/26 07:14:44;;;;;;;6.87;4.70;;;;;;;5.76;92.13;100043.59;4978951;28;103568;-62
2022/11/26 07:17:12;;;;;;;5.57;4.37;;;;;;;5.53;93.22;100054.78;4981473;28;102628;-62
2022/11/26 07:19:41;;;;;;;5.83;4.17;;;;;;;5.51;93.14;100056.59;4980687;28;103603;-62
2022/11/26 07:22:09;;;;;;;6.33;4.20;;;;;;;5.59;93.30;100054.59;4962913;28;103227;-62
2022/11/26 07:24:37;;;;;;;7.37;4.57;;;;;;;5.68;93.13;100071.81;4990746;28;103800;-62
2022/11/26 07:27:05;;;;;;;3.73;3.30;;;;;;;5.80;93.36;100074.06;4968543;28;103735;-62
2022/11/26 07:29:36;;;;;;;7.03;4.77;;;;;;;5.81;92.80;100073.19;4987057;28;103274;-63
2022/11/26 07:32:04;;;;;;;6.47;3.60;;;;;;;5.89;93.19;100084.31;4965472;28;103271;-62
2022/11/26 07:34:34;;;;;;;5.50;4.00;;;;;;;5.91;92.97;100087.75;4968842;28;103184;-62
2022/11/26 07:37:04;;;;;;;7.20;4.70;;;;;;;5.97;92.94;100094.56;4987106;28;102757;-63
2022/11/26 07:39:31;;;;;;;6.40;4.20;;;;;;;6.01;93.38;100089.16;4965638;28;104593;-63
2022/11/26 07:41:59;;;;;;;5.63;4.00;;;;;;;5.89;93.93;100102.69;4990942;28;103188;-63
2022/11/26 07:44:27;;;;;;;6.93;4.27;;;;;;;6.14;94.61;100101.00;4990494;28;102788;-60
2022/11/26 07:46:55;;;;;;;4.57;3.50;;;;;;;6.32;94.80;100097.75;4986950;28;103488;-61
2022/11/26 07:49:23;;;;;;;5.50;3.33;;;;;;;6.45;94.74;100108.72;4973705;28;103378;-61
2022/11/26 07:51:51;;;;;;;5.00;4.10;;;;;;;6.53;94.89;100108.44;4985699;28;103208;-61
2022/11/26 07:54:20;;;;;;;4.10;3.47;;;;;;;6.65;95.29;100108.03;4990497;28;102689;-61
2022/11/26 07:56:48;;;;;;;6.03;3.60;;;;;;;6.71;95.08;100107.84;4990550;28;103955;-61
2022/11/26 07:59:16;;;;;;;11.20;4.93;;;;;;;6.76;95.21;100106.75;4993047;28;103549;-60
2022/11/26 08:01:43;;;;;;;7.10;5.00;;;;;;;6.81;94.76;100114.47;4975862;28;104296;-60
2022/11/26 08:04:11;;;;;;;7.50;5.17;;;;;;;6.83;94.64;100110.00;4992117;28;102641;-61
2022/11/26 08:06:39;;;;;;;9.17;4.90;;;;;;;6.83;94.39;100113.50;4990522;28;102781;-61
2022/11/26 08:09:10;;;;;;;11.20;5.37;;;;;;;6.92;94.32;100117.56;4987645;28;103408;-60
2022/11/26 08:11:39;;;;;;;6.87;5.67;;;;;;;6.85;92.97;100119.56;4973128;28;103845;-61
2022/11/26 08:14:10;;;;;;;8.43;4.40;;;;;;;6.95;93.35;100125.34;4989257;28;102764;-61
2022/11/26 08:16:39;;;;;;;8.70;4.20;;;;;;;7.10;93.65;100122.19;4987948;28;102644;-60
2022/11/26 08:19:11;;;;;;;8.23;5.73;;;;;;;7.10;93.30;100123.97;4989923;28;103735;-61
2022/11/26 08:21:39;;;;;;;9.50;5.17;;;;;;;6.83;94.33;100128.41;4987437;28;103196;-61
2022/11/26 08:24:08;;;;;;;5.80;3.90;;;;;;;7.03;94.80;100131.19;4969969;28;102837;-61
2022/11/26 08:26:40;;;;;;;9.53;4.53;;;;;;;7.24;94.55;100124.31;4969681;28;102948;-61
2022/11/26 08:29:11;;;;;;;10.03;5.50;;;;;;;7.13;94.43;100127.31;4987018;28;104016;-61
2022/11/26 08:31:39;;;;;;;8.70;5.20;;;;;;;7.28;94.95;100121.50;4988889;28;103214;-64
2022/11/26 08:34:14;;;;;;;7.27;4.50;;;;;;;7.41;94.30;100133.28;4990476;28;102645;-62
2022/11/26 08:36:43;;;;;;;9.57;5.10;;;;;;;7.43;94.23;100134.09;4982669;28;103968;-61
2022/11/26 08:39:13;;;;;;;7.63;4.23;;;;;;;7.53;94.09;100129.34;4987148;28;103027;-62
2022/11/26 08:41:42;;;;;;;9.43;4.60;;;;;;;7.55;93.39;100133.63;4989828;28;103307;-61
2022/11/26 08:44:17;;;;;;;9.73;5.43;;;;;;;7.57;92.84;100142.34;4968974;28;103182;-61
2022/11/26 08:46:45;;;;;;;11.23;5.97;;;;;;;7.46;93.69;100144.50;4986764;28;103655;-61
2022/11/26 08:49:14;;;;;;;7.53;4.77;;;;;;;7.70;93.77;100144.50;4988444;28;103696;-62
2022/11/26 08:51:42;;;;;;;7.57;4.00;;;;;;;7.70;93.56;100147.97;4982490;28;103258;-62
2022/11/26 08:54:10;;;;;;;7.80;5.70;;;;;;;7.78;93.02;100145.06;4989126;28;102617;-61
2022/11/26 08:56:38;;;;;;;6.37;4.57;;;;;;;7.84;93.26;100142.19;4987475;28;103583;-62
2022/11/26 08:59:07;;;;;;;11.33;6.00;;;;;;;8.02;91.57;100146.75;4991461;28;103198;-61
2022/11/26 09:01:35;;;;;;;10.73;5.10;;;;;;;8.46;91.51;100148.50;4985213;28;103260;-61
2022/11/26 09:04:04;;;;;;;6.67;4.50;;;;;;;8.45;90.65;100141.50;4988445;28;102720;-62
2022/11/26 09:06:35;;;;;;;11.50;6.00;;;;;;;8.47;89.98;100149.34;4987322;28;103926;-62
2022/11/26 09:09:13;;;;;;;11.03;6.30;;;;;;;8.25;90.77;100148.47;4990104;28;103297;-62
2022/11/26 09:11:45;;;;;;;12.80;7.13;;;;;;;7.97;92.59;100148.72;4969858;28;104166;-62
2022/11/26 09:14:16;;;;;;;12.30;6.77;;;;;;;8.04;93.87;100134.38;4968821;28;103172;-62
2022/11/26 09:16:44;;;;;;;12.23;6.50;;;;;;;8.28;92.71;100138.69;4983237;28;102644;-62
2022/11/26 09:19:13;;;;;;;9.23;6.70;;;;;;;8.31;93.47;100132.47;4987656;28;103886;-62
2022/11/26 09:21:42;;;;;;;15.43;7.90;;;;;;;8.59;92.72;100135.66;4988149;28;103279;-62
2022/11/26 09:24:10;;;;;;;14.37;8.43;;;;;;;8.98;91.55;100125.22;4968811;28;102677;-62
2022/11/26 09:26:40;;;;;;;13.97;8.37;;;;;;;9.03;89.35;100123.25;4987325;28;102964;-61
2022/11/26 09:29:14;;;;;;;12.80;6.77;;;;;;;9.07;90.21;100128.28;4986580;28;103921;-61
2022/11/26 09:31:44;;;;;;;9.23;6.10;;;;;;;9.53;90.08;100123.59;4990482;28;102990;-61
2022/11/26 09:34:33;;;;;;;8.90;6.70;;;;;;;9.85;88.57;100126.47;4968495;28;102856;-61
2022/11/26 09:37:01;;;;;;;9.30;5.97;;;;;;;9.97;87.13;100135.59;4986754;28;102952;-61
2022/11/26 09:39:31;;;;;;;8.83;5.37;;;;;;;10.15;86.53;100132.13;4988516;28;103029;-61
2022/11/26 09:42:05;;;;;;;9.93;5.60;;;;;;;10.25;85.99;100135.16;4986359;28;103225;-62
2022/11/26 09:44:46;;;;;;;11.57;6.60;;;;;;;10.00;87.71;100140.72;4988669;28;102665;-61
2022/11/26 09:47:18;;;;;;;8.53;5.97;;;;;;;10.00;87.83;100147.78;4985191;28;103942;-61
2022/11/26 09:49:57;;;;;;;11.90;6.70;;;;;;;9.75;88.91;100145.44;4990685;28;104008;-61
2022/11/26 09:52:28;;;;;;;8.40;4.63;;;;;;;9.67;88.77;100143.16;4987688;28;103251;-62
2022/11/26 09:55:08;;;;;;;11.77;5.90;;;;;;;9.99;88.40;100148.75;4968577;28;102764;-61
2022/11/26 09:57:41;;;;;;;9.17;4.90;;;;;;;10.05;86.31;100137.91;4988115;28;102639;-61
2022/11/26 10:00:22;;;;;;;9.30;5.67;;;;;;;10.30;85.77;100138.47;4973193;28;103818;-61
2022/11/26 10:02:54;;;;;;;6.20;4.53;;;;;;;10.23;87.03;100137.03;4988621;28;103214;-62
2022/11/26 10:05:31;;;;;;;9.83;5.50;;;;;;;10.35;85.51;100131.16;4968719;28;102775;-61
2022/11/26 10:08:10;;;;;;;12.70;7.10;;;;;;;10.52;84.64;100131.19;4988351;28;102974;-61
2022/11/26 10:10:46;;;;;;;8.70;5.50;;;;;;;10.43;85.08;100134.28;4988238;28;103736;-61
2022/11/26 10:13:22;;;;;;;8.20;4.90;;;;;;;10.95;83.01;100132.50;4989977;28;103406;-61
2022/11/26 10:16:00;;;;;;;9.20;5.90;;;;;;;10.68;81.16;100124.19;4988957;28;102665;-61
2022/11/26 10:18:38;;;;;;;10.00;5.53;;;;;;;10.77;81.45;100126.38;4986974;28;102706;-61
2022/11/26 10:21:17;;;;;;;9.30;5.77;;;;;;;10.93;81.78;100132.59;4967760;28;103935;-61
2022/11/26 10:24:13;;;;;;;6.43;4.83;;;;;;;11.36;80.10;100133.00;4987411;28;103266;-61
2022/11/26 10:26:42;;;;;;;7.37;4.80;;;;;;;11.52;77.21;100140.03;4986230;28;102668;-59
2022/11/26 10:29:23;;;;;;;9.87;5.43;;;;;;;11.91;77.36;100128.25;4987342;28;103019;-59
2022/11/26 10:31:57;;;;;;;10.37;6.20;;;;;;;11.79;76.39;100132.41;4968696;28;104534;-59
2022/11/26 10:34:36;;;;;;;6.07;4.80;;;;;;;11.15;79.49;100128.81;4987021;28;103292;-59
2022/11/26 10:37:07;;;;;;;9.93;5.80;;;;;;;11.61;77.97;100136.06;4989307;28;103071;-62
2022/11/26 10:39:34;;;;;;;10.63;5.37;;;;;;;11.65;76.86;100129.63;4987600;28;102666;-62
2022/11/26 10:42:06;;;;;;;8.93;5.80;;;;;;;11.52;77.99;100133.88;4987349;28;103321;-62
2022/11/26 10:44:38;;;;;;;11.53;5.83;;;;;;;11.36;76.65;100127.72;4964306;28;103246;-62
2022/11/26 10:47:35;;;;;;;11.93;5.90;;;;;;;11.52;78.85;100133.88;4987788;28;103070;-62
2022/11/26 10:50:20;;;;;;;8.83;5.20;;;;;;;11.58;77.26;100133.56;4950404;28;102933;-59
2022/11/26 10:53:19;;;;;;;9.93;5.37;;;;;;;11.05;76.82;100139.03;4965236;28;104179;-62
2022/11/26 10:55:47;;;;;;;13.27;6.17;;;;;;;11.65;77.87;100130.50;4985984;28;103217;-59
2022/11/26 10:58:22;;;;;;;6.70;4.27;;;;;;;11.48;77.88;100129.72;4984116;28;102629;-63
2022/11/26 11:00:56;;;;;;;11.97;4.53;;;;;;;11.58;77.80;100118.53;4986923;28;103597;-62
2022/11/26 11:03:29;;;;;;;12.17;4.57;;;;;;;11.26;77.53;100121.19;4984572;28;103534;-62
2022/11/26 11:06:37;;;;;;;9.90;4.03;;;;;;;11.89;76.14;100109.81;4986464;28;103229;-62
2022/11/26 11:09:24;;;;;;;11.57;4.77;;;;;;;12.13;75.27;100100.47;4990281;28;103115;-62
2022/11/26 11:12:16;;;;;;;9.27;3.60;;;;;;;12.89;70.16;100103.97;4986844;28;104114;-62
2022/11/26 11:14:45;;;;;;;9.57;4.23;;;;;;;12.35;72.03;100104.56;4969518;28;103306;-62
2022/11/26 11:17:29;;;;;;;8.43;3.00;;;;;;;11.86;72.01;100107.31;4988922;28;103265;-62
2022/11/26 11:20:03;;;;;;;7.00;3.10;;;;;;;12.22;73.99;100101.75;4990054;28;103259;-62
2022/11/26 11:22:31;;;;;;;9.90;4.17;;;;;;;11.42;75.88;100098.28;4989078;28;103671;-62
2022/11/26 11:25:00;;;;;;;7.47;3.60;;;;;;;11.14;75.40;100105.97;4989117;28;104221;-62
2022/11/26 11:27:37;;;;;;;9.17;4.07;;;;;;;10.70;78.08;100105.59;4991821;28;103172;-62
2022/11/26 11:30:07;;;;;;;11.47;3.97;;;;;;;10.62;77.05;100107.78;4991005;28;102660;-62
2022/11/26 11:32:36;;;;;;;12.10;4.40;;;;;;;11.26;77.29;100105.31;4973391;28;103853;-62
2022/11/26 11:35:29;;;;;;;8.23;3.67;;;;;;;11.57;76.63;100100.94;4989914;28;104342;-62
2022/11/26 11:37:58;;;;;;;7.53;2.80;;;;;;;11.33;74.63;100096.13;4989749;28;103263;-62
2022/11/26 11:40:29;;;;;;;6.30;2.57;;;;;;;11.93;72.47;100091.97;4970015;28;102630;-62
2022/11/26 11:43:00;;;;;;;8.17;2.80;;;;;;;12.56;72.04;100087.41;4989855;28;102682;-62
2022/11/26 11:45:34;;;;;;;9.73;2.83;;;;;;;11.93;70.05;100091.97;4971979;28;103414;-62
2022/11/26 11:48:17;;;;;;;9.57;3.43;;;;;;;11.52;70.53;100094.19;4969285;28;103230;-62
2022/11/26 11:51:01;;;;;;;7.67;3.27;;;;;;;11.95;68.51;100080.34;4991364;28;103627;-62
2022/11/26 11:53:39;;;;;;;5.20;2.67;;;;;;;11.96;71.57;100087.31;4993196;28;103910;-63
2022/11/26 11:56:24;;;;;;;4.40;2.40;;;;;;;12.21;72.92;100086.78;4969049;28;104000;-62
2022/11/26 11:59:34;;;;;;;5.60;2.63;;;;;;;11.68;71.85;100084.47;4987510;28;104095;-63